Calilegua, Argentina
Current Conditions -  °F | °C
As of 6:00 AM on Saturday 22 Nov 2014 (Local Time) from SASJ Reporting Station
Broken Clouds Broken Clouds  
Wind Chill: 18°   Ceiling: 10000
Heat Index: 18°   Visibility: 6mi
Dew Point: 15°   Wind: 0mph
Humidity: 83%   Direction: NA
Pressure: 30"   Gusts: NA
Location:  23.78°S, 64.78°W
Report Text: SASJ 220900Z 00000KT 9999 FEW035 BKN10018/15 Q1016
Loading
Personal Weather Stations






























Interactive Weather Map New forecast layout! Learn more

10-Day Weather Forecast

Advertisements
Track Severe Weather on mobile